sensor_id;sensor_type;location;lat;lon;timestamp;temperature;humidity
40153;DHT22;26371;56.992;23.912;2022-10-16T00:01:42;12.10;99.90
40153;DHT22;26371;56.992;23.912;2022-10-16T00:04:11;12.10;99.90
40153;DHT22;26371;56.992;23.912;2022-10-16T00:06:40;12.10;99.90
40153;DHT22;26371;56.992;23.912;2022-10-16T00:09:09;12.00;99.90
40153;DHT22;26371;56.992;23.912;2022-10-16T00:11:39;12.10;99.90
40153;DHT22;26371;56.992;23.912;2022-10-16T00:14:11;12.10;99.90
40153;DHT22;26371;56.992;23.912;2022-10-16T00:16:41;12.10;99.90
40153;DHT22;26371;56.992;23.912;2022-10-16T00:19:11;12.10;99.90
40153;DHT22;26371;56.992;23.912;2022-10-16T00:21:40;12.10;99.90
40153;DHT22;26371;56.992;23.912;2022-10-16T00:24:15;12.10;99.90
40153;DHT22;26371;56.992;23.912;2022-10-16T00:26:46;12.10;99.90
40153;DHT22;26371;56.992;23.912;2022-10-16T00:29:27;12.10;99.90
40153;DHT22;26371;56.992;23.912;2022-10-16T00:32:01;12.00;99.90
40153;DHT22;26371;56.992;23.912;2022-10-16T00:34:29;12.00;99.90
40153;DHT22;26371;56.992;23.912;2022-10-16T00:36:58;12.00;99.90
40153;DHT22;26371;56.992;23.912;2022-10-16T00:39:27;12.00;99.90
40153;DHT22;26371;56.992;23.912;2022-10-16T00:41:55;12.00;99.90
40153;DHT22;26371;56.992;23.912;2022-10-16T00:44:47;12.00;99.90
40153;DHT22;26371;56.992;23.912;2022-10-16T00:47:21;12.00;99.90
40153;DHT22;26371;56.992;23.912;2022-10-16T00:49:55;12.00;99.90
40153;DHT22;26371;56.992;23.912;2022-10-16T00:52:25;12.00;99.90
40153;DHT22;26371;56.992;23.912;2022-10-16T00:54:55;12.00;99.90
40153;DHT22;26371;56.992;23.912;2022-10-16T00:57:24;11.90;99.90
40153;DHT22;26371;56.992;23.912;2022-10-16T00:59:55;12.00;99.90
40153;DHT22;26371;56.992;23.912;2022-10-16T01:02:23;12.00;99.90
40153;DHT22;26371;56.992;23.912;2022-10-16T01:04:53;12.00;99.90
40153;DHT22;26371;56.992;23.912;2022-10-16T01:07:33;12.00;99.90
40153;DHT22;26371;56.992;23.912;2022-10-16T01:10:13;12.00;99.90
40153;DHT22;26371;56.992;23.912;2022-10-16T01:12:46;12.00;99.90
40153;DHT22;26371;56.992;23.912;2022-10-16T01:15:25;12.00;99.90
40153;DHT22;26371;56.992;23.912;2022-10-16T01:17:59;12.00;99.90
40153;DHT22;26371;56.992;23.912;2022-10-16T01:20:32;12.00;99.90
40153;DHT22;26371;56.992;23.912;2022-10-16T01:23:18;12.00;99.90
40153;DHT22;26371;56.992;23.912;2022-10-16T01:26:00;12.00;99.90
40153;DHT22;26371;56.992;23.912;2022-10-16T01:28:37;12.00;99.90
40153;DHT22;26371;56.992;23.912;2022-10-16T01:31:09;12.00;99.90
40153;DHT22;26371;56.992;23.912;2022-10-16T01:33:43;12.00;99.90
40153;DHT22;26371;56.992;23.912;2022-10-16T01:36:14;12.00;99.90
40153;DHT22;26371;56.992;23.912;2022-10-16T01:38:46;12.00;99.90
40153;DHT22;26371;56.992;23.912;2022-10-16T01:41:18;12.00;99.90
40153;DHT22;26371;56.992;23.912;2022-10-16T01:43:55;12.10;99.90
40153;DHT22;26371;56.992;23.912;2022-10-16T01:46:26;12.10;99.90
40153;DHT22;26371;56.992;23.912;2022-10-16T01:48:55;12.10;99.90
40153;DHT22;26371;56.992;23.912;2022-10-16T01:51:25;12.10;99.90
40153;DHT22;26371;56.992;23.912;2022-10-16T01:53:56;12.00;99.90
40153;DHT22;26371;56.992;23.912;2022-10-16T01:56:27;12.00;99.90
40153;DHT22;26371;56.992;23.912;2022-10-16T01:59:03;12.00;99.90
40153;DHT22;26371;56.992;23.912;2022-10-16T02:01:36;12.00;99.90
40153;DHT22;26371;56.992;23.912;2022-10-16T02:04:13;12.00;99.90
40153;DHT22;26371;56.992;23.912;2022-10-16T02:06:43;12.00;99.90
40153;DHT22;26371;56.992;23.912;2022-10-16T02:09:12;12.00;99.90
40153;DHT22;26371;56.992;23.912;2022-10-16T02:11:43;12.00;99.90
40153;DHT22;26371;56.992;23.912;2022-10-16T02:14:13;12.10;99.90
40153;DHT22;26371;56.992;23.912;2022-10-16T02:16:44;12.10;99.90
40153;DHT22;26371;56.992;23.912;2022-10-16T02:19:14;12.00;99.90
40153;DHT22;26371;56.992;23.912;2022-10-16T02:21:46;12.00;99.90
40153;DHT22;26371;56.992;23.912;2022-10-16T02:24:21;12.00;99.90
40153;DHT22;26371;56.992;23.912;2022-10-16T02:27:00;12.00;99.90
40153;DHT22;26371;56.992;23.912;2022-10-16T02:29:33;12.00;99.90
40153;DHT22;26371;56.992;23.912;2022-10-16T02:32:06;11.90;99.90
40153;DHT22;26371;56.992;23.912;2022-10-16T02:34:37;11.90;99.90
40153;DHT22;26371;56.992;23.912;2022-10-16T02:37:08;11.90;99.90
40153;DHT22;26371;56.992;23.912;2022-10-16T02:39:38;12.00;99.90
40153;DHT22;26371;56.992;23.912;2022-10-16T02:42:10;11.90;99.90
40153;DHT22;26371;56.992;23.912;2022-10-16T02:44:41;12.00;99.90
40153;DHT22;26371;56.992;23.912;2022-10-16T02:47:10;12.00;99.90
40153;DHT22;26371;56.992;23.912;2022-10-16T02:49:39;12.00;99.90
40153;DHT22;26371;56.992;23.912;2022-10-16T02:52:08;12.00;99.90
40153;DHT22;26371;56.992;23.912;2022-10-16T02:54:37;12.00;99.90
40153;DHT22;26371;56.992;23.912;2022-10-16T02:57:05;12.00;99.90
40153;DHT22;26371;56.992;23.912;2022-10-16T02:59:34;12.00;99.90
40153;DHT22;26371;56.992;23.912;2022-10-16T03:02:04;12.00;99.90
40153;DHT22;26371;56.992;23.912;2022-10-16T03:04:33;12.10;99.90
40153;DHT22;26371;56.992;23.912;2022-10-16T03:07:02;12.00;99.90
40153;DHT22;26371;56.992;23.912;2022-10-16T03:09:30;12.10;99.90
40153;DHT22;26371;56.992;23.912;2022-10-16T03:11:59;12.00;99.90
40153;DHT22;26371;56.992;23.912;2022-10-16T03:14:28;12.10;99.90
40153;DHT22;26371;56.992;23.912;2022-10-16T03:16:56;12.10;99.90
40153;DHT22;26371;56.992;23.912;2022-10-16T03:19:27;12.10;99.90
40153;DHT22;26371;56.992;23.912;2022-10-16T03:21:56;12.10;99.90
40153;DHT22;26371;56.992;23.912;2022-10-16T03:24:24;12.10;99.90
40153;DHT22;26371;56.992;23.912;2022-10-16T03:26:53;12.10;99.90
40153;DHT22;26371;56.992;23.912;2022-10-16T03:29:22;12.10;99.90
40153;DHT22;26371;56.992;23.912;2022-10-16T03:31:50;12.10;99.90
40153;DHT22;26371;56.992;23.912;2022-10-16T03:34:19;12.10;99.90
40153;DHT22;26371;56.992;23.912;2022-10-16T03:36:49;12.10;99.90
40153;DHT22;26371;56.992;23.912;2022-10-16T03:39:19;12.10;99.90
40153;DHT22;26371;56.992;23.912;2022-10-16T03:41:48;12.20;99.90
40153;DHT22;26371;56.992;23.912;2022-10-16T03:44:17;12.20;99.90
40153;DHT22;26371;56.992;23.912;2022-10-16T03:46:45;12.20;99.90
40153;DHT22;26371;56.992;23.912;2022-10-16T03:49:14;12.20;99.90
40153;DHT22;26371;56.992;23.912;2022-10-16T03:51:43;12.20;99.90
40153;DHT22;26371;56.992;23.912;2022-10-16T03:54:13;12.20;99.90
40153;DHT22;26371;56.992;23.912;2022-10-16T03:56:41;12.30;99.90
40153;DHT22;26371;56.992;23.912;2022-10-16T03:59:10;12.30;99.90
40153;DHT22;26371;56.992;23.912;2022-10-16T04:01:39;12.30;99.90
40153;DHT22;26371;56.992;23.912;2022-10-16T04:04:07;12.30;99.90
40153;DHT22;26371;56.992;23.912;2022-10-16T04:06:36;12.40;99.90
40153;DHT22;26371;56.992;23.912;2022-10-16T04:09:05;12.40;99.90
40153;DHT22;26371;56.992;23.912;2022-10-16T04:11:35;12.40;99.90
40153;DHT22;26371;56.992;23.912;2022-10-16T04:14:03;12.50;99.90
40153;DHT22;26371;56.992;23.912;2022-10-16T04:16:32;12.50;99.90
40153;DHT22;26371;56.992;23.912;2022-10-16T04:19:01;12.50;99.90
40153;DHT22;26371;56.992;23.912;2022-10-16T04:21:30;12.50;99.90
40153;DHT22;26371;56.992;23.912;2022-10-16T04:24:01;12.50;99.90
40153;DHT22;26371;56.992;23.912;2022-10-16T04:26:30;12.40;99.90
40153;DHT22;26371;56.992;23.912;2022-10-16T04:29:34;12.50;99.90
40153;DHT22;26371;56.992;23.912;2022-10-16T04:32:57;12.60;99.90
40153;DHT22;26371;56.992;23.912;2022-10-16T04:35:30;12.60;99.90
40153;DHT22;26371;56.992;23.912;2022-10-16T04:37:59;12.60;99.90
40153;DHT22;26371;56.992;23.912;2022-10-16T04:40:28;12.50;99.90
40153;DHT22;26371;56.992;23.912;2022-10-16T04:42:59;12.50;99.90
40153;DHT22;26371;56.992;23.912;2022-10-16T04:45:30;12.50;99.90
40153;DHT22;26371;56.992;23.912;2022-10-16T04:47:59;12.50;99.90
40153;DHT22;26371;56.992;23.912;2022-10-16T04:50:28;12.50;99.90
40153;DHT22;26371;56.992;23.912;2022-10-16T04:53:06;12.50;99.90
40153;DHT22;26371;56.992;23.912;2022-10-16T04:55:34;12.50;99.90
40153;DHT22;26371;56.992;23.912;2022-10-16T04:58:04;12.50;99.90
40153;DHT22;26371;56.992;23.912;2022-10-16T05:00:35;12.60;99.90
40153;DHT22;26371;56.992;23.912;2022-10-16T05:03:05;12.60;99.90
40153;DHT22;26371;56.992;23.912;2022-10-16T05:05:36;12.50;99.90
40153;DHT22;26371;56.992;23.912;2022-10-16T05:08:05;12.50;99.90
40153;DHT22;26371;56.992;23.912;2022-10-16T05:10:33;12.50;99.90
40153;DHT22;26371;56.992;23.912;2022-10-16T05:13:02;12.50;99.90
40153;DHT22;26371;56.992;23.912;2022-10-16T05:15:31;12.50;99.90
40153;DHT22;26371;56.992;23.912;2022-10-16T05:18:01;12.50;99.90
40153;DHT22;26371;56.992;23.912;2022-10-16T05:20:30;12.60;99.90
40153;DHT22;26371;56.992;23.912;2022-10-16T05:22:58;12.50;99.90
40153;DHT22;26371;56.992;23.912;2022-10-16T05:25:27;12.60;99.90
40153;DHT22;26371;56.992;23.912;2022-10-16T05:27:56;12.70;99.90
40153;DHT22;26371;56.992;23.912;2022-10-16T05:30:25;12.70;99.90
40153;DHT22;26371;56.992;23.912;2022-10-16T05:32:53;12.70;99.90
40153;DHT22;26371;56.992;23.912;2022-10-16T05:35:23;12.70;99.90
40153;DHT22;26371;56.992;23.912;2022-10-16T05:37:52;12.70;99.90
40153;DHT22;26371;56.992;23.912;2022-10-16T05:40:21;12.70;99.90
40153;DHT22;26371;56.992;23.912;2022-10-16T05:42:50;12.70;99.90
40153;DHT22;26371;56.992;23.912;2022-10-16T05:45:22;12.70;99.90
40153;DHT22;26371;56.992;23.912;2022-10-16T05:47:51;12.70;99.90
40153;DHT22;26371;56.992;23.912;2022-10-16T05:50:20;12.70;99.90
40153;DHT22;26371;56.992;23.912;2022-10-16T05:52:50;12.70;99.90
40153;DHT22;26371;56.992;23.912;2022-10-16T05:55:18;12.70;99.90
40153;DHT22;26371;56.992;23.912;2022-10-16T05:57:47;12.70;99.90
40153;DHT22;26371;56.992;23.912;2022-10-16T06:00:16;12.70;99.90
40153;DHT22;26371;56.992;23.912;2022-10-16T06:02:45;12.70;99.90
40153;DHT22;26371;56.992;23.912;2022-10-16T06:05:13;12.70;99.90
40153;DHT22;26371;56.992;23.912;2022-10-16T06:07:42;12.80;99.90
40153;DHT22;26371;56.992;23.912;2022-10-16T06:10:12;12.80;99.90
40153;DHT22;26371;56.992;23.912;2022-10-16T06:12:42;12.80;99.90
40153;DHT22;26371;56.992;23.912;2022-10-16T06:15:10;12.90;99.90
40153;DHT22;26371;56.992;23.912;2022-10-16T06:17:39;12.80;99.90
40153;DHT22;26371;56.992;23.912;2022-10-16T06:20:08;12.90;99.90
40153;DHT22;26371;56.992;23.912;2022-10-16T06:22:37;12.90;99.90
40153;DHT22;26371;56.992;23.912;2022-10-16T06:25:06;12.90;99.90
40153;DHT22;26371;56.992;23.912;2022-10-16T06:27:38;12.90;99.90
40153;DHT22;26371;56.992;23.912;2022-10-16T06:30:08;12.90;99.90
40153;DHT22;26371;56.992;23.912;2022-10-16T06:42:37;13.00;99.90
40153;DHT22;26371;56.992;23.912;2022-10-16T06:45:06;13.00;99.90
40153;DHT22;26371;56.992;23.912;2022-10-16T06:47:35;12.90;99.90
40153;DHT22;26371;56.992;23.912;2022-10-16T06:50:05;12.90;99.90
40153;DHT22;26371;56.992;23.912;2022-10-16T06:52:34;13.00;99.90
40153;DHT22;26371;56.992;23.912;2022-10-16T06:55:04;12.90;99.90
40153;DHT22;26371;56.992;23.912;2022-10-16T06:57:33;12.90;99.90
40153;DHT22;26371;56.992;23.912;2022-10-16T07:00:04;13.00;99.90
40153;DHT22;26371;56.992;23.912;2022-10-16T07:02:33;12.90;99.90
40153;DHT22;26371;56.992;23.912;2022-10-16T07:05:02;13.00;99.90
40153;DHT22;26371;56.992;23.912;2022-10-16T07:07:31;13.00;99.90
40153;DHT22;26371;56.992;23.912;2022-10-16T07:09:59;12.90;99.90
40153;DHT22;26371;56.992;23.912;2022-10-16T07:12:28;13.00;99.90
40153;DHT22;26371;56.992;23.912;2022-10-16T07:14:58;13.00;99.90
40153;DHT22;26371;56.992;23.912;2022-10-16T07:29:56;13.20;99.90
40153;DHT22;26371;56.992;23.912;2022-10-16T07:32:24;13.10;99.90
40153;DHT22;26371;56.992;23.912;2022-10-16T07:34:55;13.10;99.90
40153;DHT22;26371;56.992;23.912;2022-10-16T07:37:24;13.10;99.90
40153;DHT22;26371;56.992;23.912;2022-10-16T07:39:52;13.10;99.90
40153;DHT22;26371;56.992;23.912;2022-10-16T07:42:22;13.10;99.90
40153;DHT22;26371;56.992;23.912;2022-10-16T07:44:50;13.10;99.90
40153;DHT22;26371;56.992;23.912;2022-10-16T07:47:19;13.10;99.90
40153;DHT22;26371;56.992;23.912;2022-10-16T07:49:48;13.20;99.90
40153;DHT22;26371;56.992;23.912;2022-10-16T07:52:18;13.20;99.90
40153;DHT22;26371;56.992;23.912;2022-10-16T07:54:47;13.30;99.90
40153;DHT22;26371;56.992;23.912;2022-10-16T07:57:15;13.30;99.90
40153;DHT22;26371;56.992;23.912;2022-10-16T07:59:46;13.30;99.90
40153;DHT22;26371;56.992;23.912;2022-10-16T08:02:15;13.40;99.90
40153;DHT22;26371;56.992;23.912;2022-10-16T08:04:46;13.40;99.90
40153;DHT22;26371;56.992;23.912;2022-10-16T08:07:14;13.40;99.90
40153;DHT22;26371;56.992;23.912;2022-10-16T08:09:44;13.40;99.90
40153;DHT22;26371;56.992;23.912;2022-10-16T08:12:17;13.50;99.90
40153;DHT22;26371;56.992;23.912;2022-10-16T08:14:45;13.50;99.90
40153;DHT22;26371;56.992;23.912;2022-10-16T08:17:14;13.60;99.90
40153;DHT22;26371;56.992;23.912;2022-10-16T08:19:44;13.60;99.90
40153;DHT22;26371;56.992;23.912;2022-10-16T08:22:14;13.60;99.90
40153;DHT22;26371;56.992;23.912;2022-10-16T08:24:44;13.60;99.90
40153;DHT22;26371;56.992;23.912;2022-10-16T08:27:13;13.60;99.90
40153;DHT22;26371;56.992;23.912;2022-10-16T08:29:41;13.60;99.90
40153;DHT22;26371;56.992;23.912;2022-10-16T08:32:10;13.60;99.90
40153;DHT22;26371;56.992;23.912;2022-10-16T08:34:39;13.60;99.90
40153;DHT22;26371;56.992;23.912;2022-10-16T08:37:07;13.60;99.90
40153;DHT22;26371;56.992;23.912;2022-10-16T08:39:38;13.60;99.90
40153;DHT22;26371;56.992;23.912;2022-10-16T08:42:32;13.60;99.90
40153;DHT22;26371;56.992;23.912;2022-10-16T08:45:25;13.60;99.90
40153;DHT22;26371;56.992;23.912;2022-10-16T08:48:09;13.60;99.90
40153;DHT22;26371;56.992;23.912;2022-10-16T08:50:44;13.60;99.90
40153;DHT22;26371;56.992;23.912;2022-10-16T08:53:16;13.60;99.90
40153;DHT22;26371;56.992;23.912;2022-10-16T08:55:49;13.60;99.90
40153;DHT22;26371;56.992;23.912;2022-10-16T08:58:21;13.60;99.90
40153;DHT22;26371;56.992;23.912;2022-10-16T09:00:54;13.70;99.90
40153;DHT22;26371;56.992;23.912;2022-10-16T09:03:39;13.60;99.90
40153;DHT22;26371;56.992;23.912;2022-10-16T09:06:27;13.70;99.90
40153;DHT22;26371;56.992;23.912;2022-10-16T09:11:46;13.80;99.90
40153;DHT22;26371;56.992;23.912;2022-10-16T09:14:35;13.80;99.90
40153;DHT22;26371;56.992;23.912;2022-10-16T09:17:17;13.80;99.90
40153;DHT22;26371;56.992;23.912;2022-10-16T09:19:53;13.70;99.90
40153;DHT22;26371;56.992;23.912;2022-10-16T09:22:27;13.80;99.90
40153;DHT22;26371;56.992;23.912;2022-10-16T09:25:00;13.90;99.90
40153;DHT22;26371;56.992;23.912;2022-10-16T09:27:30;13.90;99.90
40153;DHT22;26371;56.992;23.912;2022-10-16T09:30:00;13.90;99.90
40153;DHT22;26371;56.992;23.912;2022-10-16T09:32:29;13.90;99.90
40153;DHT22;26371;56.992;23.912;2022-10-16T09:35:01;13.90;99.90
40153;DHT22;26371;56.992;23.912;2022-10-16T09:37:31;14.00;99.90
40153;DHT22;26371;56.992;23.912;2022-10-16T09:39:59;14.00;99.90
40153;DHT22;26371;56.992;23.912;2022-10-16T09:42:35;14.00;99.90
40153;DHT22;26371;56.992;23.912;2022-10-16T09:45:21;14.00;99.90
40153;DHT22;26371;56.992;23.912;2022-10-16T09:47:51;14.00;99.90
40153;DHT22;26371;56.992;23.912;2022-10-16T09:50:25;14.00;99.90
40153;DHT22;26371;56.992;23.912;2022-10-16T09:53:12;14.00;99.90
40153;DHT22;26371;56.992;23.912;2022-10-16T09:55:51;14.00;99.90
40153;DHT22;26371;56.992;23.912;2022-10-16T10:44:32;14.60;99.90
40153;DHT22;26371;56.992;23.912;2022-10-16T10:47:11;14.60;99.90
40153;DHT22;26371;56.992;23.912;2022-10-16T10:49:51;14.50;99.90
40153;DHT22;26371;56.992;23.912;2022-10-16T10:52:40;14.60;99.90
40153;DHT22;26371;56.992;23.912;2022-10-16T10:55:16;14.50;99.90
40153;DHT22;26371;56.992;23.912;2022-10-16T10:58:00;14.50;99.90
40153;DHT22;26371;56.992;23.912;2022-10-16T11:00:47;14.50;99.90
40153;DHT22;26371;56.992;23.912;2022-10-16T11:03:41;14.50;99.90
40153;DHT22;26371;56.992;23.912;2022-10-16T11:06:13;14.50;99.90
40153;DHT22;26371;56.992;23.912;2022-10-16T11:08:48;14.50;99.90
40153;DHT22;26371;56.992;23.912;2022-10-16T11:11:24;14.50;99.90
40153;DHT22;26371;56.992;23.912;2022-10-16T11:13:57;14.50;99.90
40153;DHT22;26371;56.992;23.912;2022-10-16T11:16:29;14.50;99.90
40153;DHT22;26371;56.992;23.912;2022-10-16T11:19:04;14.50;99.90
40153;DHT22;26371;56.992;23.912;2022-10-16T11:21:43;14.50;99.90
40153;DHT22;26371;56.992;23.912;2022-10-16T11:24:20;14.50;99.90
40153;DHT22;26371;56.992;23.912;2022-10-16T11:26:52;14.50;99.90
40153;DHT22;26371;56.992;23.912;2022-10-16T11:29:26;14.50;99.90
40153;DHT22;26371;56.992;23.912;2022-10-16T11:31:59;14.50;99.90
40153;DHT22;26371;56.992;23.912;2022-10-16T11:34:36;14.60;99.90
40153;DHT22;26371;56.992;23.912;2022-10-16T11:37:11;14.60;99.90
40153;DHT22;26371;56.992;23.912;2022-10-16T11:39:40;14.60;99.90
40153;DHT22;26371;56.992;23.912;2022-10-16T11:42:13;14.60;99.90
40153;DHT22;26371;56.992;23.912;2022-10-16T11:44:51;14.60;99.90
40153;DHT22;26371;56.992;23.912;2022-10-16T11:47:31;14.60;99.90
40153;DHT22;26371;56.992;23.912;2022-10-16T11:50:26;14.60;99.90
40153;DHT22;26371;56.992;23.912;2022-10-16T11:53:03;14.60;99.90
40153;DHT22;26371;56.992;23.912;2022-10-16T11:55:34;14.60;99.90
40153;DHT22;26371;56.992;23.912;2022-10-16T11:58:19;14.60;99.90
40153;DHT22;26371;56.992;23.912;2022-10-16T12:00:57;14.70;99.90
40153;DHT22;26371;56.992;23.912;2022-10-16T12:03:31;14.70;99.90
40153;DHT22;26371;56.992;23.912;2022-10-16T12:06:13;14.70;99.90
40153;DHT22;26371;56.992;23.912;2022-10-16T12:08:45;14.70;99.90
40153;DHT22;26371;56.992;23.912;2022-10-16T12:11:30;14.70;99.90
40153;DHT22;26371;56.992;23.912;2022-10-16T12:14:18;14.80;99.90
40153;DHT22;26371;56.992;23.912;2022-10-16T12:16:53;14.80;99.90
40153;DHT22;26371;56.992;23.912;2022-10-16T12:19:23;14.80;99.90
40153;DHT22;26371;56.992;23.912;2022-10-16T12:21:56;14.70;99.90
40153;DHT22;26371;56.992;23.912;2022-10-16T12:24:33;14.70;99.90
40153;DHT22;26371;56.992;23.912;2022-10-16T12:27:04;14.70;99.90
40153;DHT22;26371;56.992;23.912;2022-10-16T12:29:39;14.60;99.90
40153;DHT22;26371;56.992;23.912;2022-10-16T12:32:26;14.70;99.90
40153;DHT22;26371;56.992;23.912;2022-10-16T12:35:19;14.70;99.90
40153;DHT22;26371;56.992;23.912;2022-10-16T12:37:52;14.70;99.90
40153;DHT22;26371;56.992;23.912;2022-10-16T12:40:32;14.70;99.90
40153;DHT22;26371;56.992;23.912;2022-10-16T12:43:11;14.60;99.90
40153;DHT22;26371;56.992;23.912;2022-10-16T12:45:41;14.60;99.90
40153;DHT22;26371;56.992;23.912;2022-10-16T12:48:20;14.60;99.90
40153;DHT22;26371;56.992;23.912;2022-10-16T12:51:10;14.60;99.90
40153;DHT22;26371;56.992;23.912;2022-10-16T12:53:41;14.60;99.90
40153;DHT22;26371;56.992;23.912;2022-10-16T12:56:14;14.60;99.90
40153;DHT22;26371;56.992;23.912;2022-10-16T12:58:57;14.50;99.90
40153;DHT22;26371;56.992;23.912;2022-10-16T13:01:46;14.50;99.90
40153;DHT22;26371;56.992;23.912;2022-10-16T13:04:33;14.50;99.90
40153;DHT22;26371;56.992;23.912;2022-10-16T13:07:27;14.50;99.90
40153;DHT22;26371;56.992;23.912;2022-10-16T13:10:09;14.50;99.90
40153;DHT22;26371;56.992;23.912;2022-10-16T13:12:55;14.50;99.90
40153;DHT22;26371;56.992;23.912;2022-10-16T13:15:38;14.50;99.90
40153;DHT22;26371;56.992;23.912;2022-10-16T13:18:14;14.50;99.90
40153;DHT22;26371;56.992;23.912;2022-10-16T13:20:58;14.60;99.90
40153;DHT22;26371;56.992;23.912;2022-10-16T13:23:34;14.60;99.90
40153;DHT22;26371;56.992;23.912;2022-10-16T13:26:17;14.60;99.90
40153;DHT22;26371;56.992;23.912;2022-10-16T13:28:48;14.60;99.90
40153;DHT22;26371;56.992;23.912;2022-10-16T13:31:21;14.60;99.90
40153;DHT22;26371;56.992;23.912;2022-10-16T13:33:53;14.60;99.90
40153;DHT22;26371;56.992;23.912;2022-10-16T13:36:24;14.60;99.90
40153;DHT22;26371;56.992;23.912;2022-10-16T13:39:12;14.60;99.90
40153;DHT22;26371;56.992;23.912;2022-10-16T13:41:43;14.60;99.90
40153;DHT22;26371;56.992;23.912;2022-10-16T13:44:15;14.60;99.90
40153;DHT22;26371;56.992;23.912;2022-10-16T13:46:46;14.60;99.90
40153;DHT22;26371;56.992;23.912;2022-10-16T13:49:15;14.50;99.90
40153;DHT22;26371;56.992;23.912;2022-10-16T13:51:54;14.60;99.90
40153;DHT22;26371;56.992;23.912;2022-10-16T13:54:24;14.60;99.90
40153;DHT22;26371;56.992;23.912;2022-10-16T13:56:55;14.60;99.90
40153;DHT22;26371;56.992;23.912;2022-10-16T13:59:36;14.60;99.90
40153;DHT22;26371;56.992;23.912;2022-10-16T14:02:14;14.50;99.90
40153;DHT22;26371;56.992;23.912;2022-10-16T14:04:47;14.60;99.90
40153;DHT22;26371;56.992;23.912;2022-10-16T14:07:21;14.60;99.90
40153;DHT22;26371;56.992;23.912;2022-10-16T14:09:52;14.60;99.90
40153;DHT22;26371;56.992;23.912;2022-10-16T14:12:23;14.50;99.90
40153;DHT22;26371;56.992;23.912;2022-10-16T14:14:55;14.60;99.90
40153;DHT22;26371;56.992;23.912;2022-10-16T14:17:28;14.50;99.90
40153;DHT22;26371;56.992;23.912;2022-10-16T14:19:59;14.60;99.90
40153;DHT22;26371;56.992;23.912;2022-10-16T14:22:34;14.50;99.90
40153;DHT22;26371;56.992;23.912;2022-10-16T14:25:21;14.50;99.90
40153;DHT22;26371;56.992;23.912;2022-10-16T14:28:04;14.50;99.90
40153;DHT22;26371;56.992;23.912;2022-10-16T14:30:34;14.50;99.90
40153;DHT22;26371;56.992;23.912;2022-10-16T14:33:05;14.50;99.90
40153;DHT22;26371;56.992;23.912;2022-10-16T14:35:36;14.50;99.90
40153;DHT22;26371;56.992;23.912;2022-10-16T14:38:06;14.50;99.90
40153;DHT22;26371;56.992;23.912;2022-10-16T14:40:47;14.50;99.90
40153;DHT22;26371;56.992;23.912;2022-10-16T14:43:22;14.50;99.90
40153;DHT22;26371;56.992;23.912;2022-10-16T14:45:52;14.50;99.90
40153;DHT22;26371;56.992;23.912;2022-10-16T14:48:22;14.50;99.90
40153;DHT22;26371;56.992;23.912;2022-10-16T14:50:51;14.50;99.90
40153;DHT22;26371;56.992;23.912;2022-10-16T14:53:21;14.50;99.90
40153;DHT22;26371;56.992;23.912;2022-10-16T14:55:50;14.50;99.90
40153;DHT22;26371;56.992;23.912;2022-10-16T14:58:21;14.50;99.90
40153;DHT22;26371;56.992;23.912;2022-10-16T15:00:51;14.50;99.90
40153;DHT22;26371;56.992;23.912;2022-10-16T15:03:20;14.50;99.90
40153;DHT22;26371;56.992;23.912;2022-10-16T15:05:49;14.50;99.90
40153;DHT22;26371;56.992;23.912;2022-10-16T15:08:18;14.50;99.90
40153;DHT22;26371;56.992;23.912;2022-10-16T15:10:46;14.60;99.90
40153;DHT22;26371;56.992;23.912;2022-10-16T15:13:15;14.60;99.90
40153;DHT22;26371;56.992;23.912;2022-10-16T15:15:46;14.60;99.90
40153;DHT22;26371;56.992;23.912;2022-10-16T15:18:16;14.60;99.90
40153;DHT22;26371;56.992;23.912;2022-10-16T15:20:49;14.60;99.90
40153;DHT22;26371;56.992;23.912;2022-10-16T15:23:20;14.60;99.90
40153;DHT22;26371;56.992;23.912;2022-10-16T15:25:51;14.60;99.90
40153;DHT22;26371;56.992;23.912;2022-10-16T15:28:21;14.60;99.90
40153;DHT22;26371;56.992;23.912;2022-10-16T15:30:53;14.50;99.90
40153;DHT22;26371;56.992;23.912;2022-10-16T15:33:24;14.60;99.90
40153;DHT22;26371;56.992;23.912;2022-10-16T15:35:54;14.50;99.90
40153;DHT22;26371;56.992;23.912;2022-10-16T15:38:23;14.50;99.90
40153;DHT22;26371;56.992;23.912;2022-10-16T15:40:55;14.50;99.90
40153;DHT22;26371;56.992;23.912;2022-10-16T15:43:24;14.50;99.90
40153;DHT22;26371;56.992;23.912;2022-10-16T15:45:59;14.50;99.90
40153;DHT22;26371;56.992;23.912;2022-10-16T15:48:29;14.50;99.90
40153;DHT22;26371;56.992;23.912;2022-10-16T15:50:57;14.50;99.90
40153;DHT22;26371;56.992;23.912;2022-10-16T15:53:26;14.50;99.90
40153;DHT22;26371;56.992;23.912;2022-10-16T15:55:55;14.40;99.90
40153;DHT22;26371;56.992;23.912;2022-10-16T15:58:23;14.40;99.90
40153;DHT22;26371;56.992;23.912;2022-10-16T16:00:57;14.40;99.90
40153;DHT22;26371;56.992;23.912;2022-10-16T16:03:29;14.40;99.90
40153;DHT22;26371;56.992;23.912;2022-10-16T16:05:58;14.40;99.90
40153;DHT22;26371;56.992;23.912;2022-10-16T16:08:26;14.40;99.90
40153;DHT22;26371;56.992;23.912;2022-10-16T16:10:59;14.40;99.90
40153;DHT22;26371;56.992;23.912;2022-10-16T16:13:28;14.40;99.90
40153;DHT22;26371;56.992;23.912;2022-10-16T16:15:58;14.30;99.90
40153;DHT22;26371;56.992;23.912;2022-10-16T16:18:27;14.30;99.90
40153;DHT22;26371;56.992;23.912;2022-10-16T16:20:56;14.30;99.90
40153;DHT22;26371;56.992;23.912;2022-10-16T16:23:25;14.30;99.90
40153;DHT22;26371;56.992;23.912;2022-10-16T16:26:04;14.30;99.90
40153;DHT22;26371;56.992;23.912;2022-10-16T16:28:33;14.30;99.90
40153;DHT22;26371;56.992;23.912;2022-10-16T16:31:04;14.30;99.90
40153;DHT22;26371;56.992;23.912;2022-10-16T16:33:33;14.30;99.90
40153;DHT22;26371;56.992;23.912;2022-10-16T16:36:04;14.30;99.90
40153;DHT22;26371;56.992;23.912;2022-10-16T16:38:39;14.30;99.90
40153;DHT22;26371;56.992;23.912;2022-10-16T16:41:12;14.30;99.90
40153;DHT22;26371;56.992;23.912;2022-10-16T16:43:41;14.30;99.90
40153;DHT22;26371;56.992;23.912;2022-10-16T16:46:12;14.30;99.90
40153;DHT22;26371;56.992;23.912;2022-10-16T16:48:41;14.30;99.90
40153;DHT22;26371;56.992;23.912;2022-10-16T16:51:11;14.30;99.90
40153;DHT22;26371;56.992;23.912;2022-10-16T16:53:43;14.30;99.90
40153;DHT22;26371;56.992;23.912;2022-10-16T16:56:12;14.30;99.90
40153;DHT22;26371;56.992;23.912;2022-10-16T16:58:44;14.30;99.90
40153;DHT22;26371;56.992;23.912;2022-10-16T17:01:14;14.30;99.90